This is the latest recevied weather packets stored in our database for station/object Aldingen. If no packets are shown the sender has not sent any weather packets the latest 10 day(s).
| Time | Temp. | Humidity | Pressure | Rain* | Wind** | Luminosity | Snow |
|---|---|---|---|---|---|---|---|
| 1777800731 | 20° C | 47% | 1013.8 hPa | 0 mm | - | - | - |
| 1777798930 | 18.89° C | 50% | 1014 hPa | 0 mm | - | - | - |
| 1777797132 | 18.33° C | 54% | 1014.2 hPa | 0 mm | - | - | - |
| 1777795332 | 17.22° C | 60% | 1014.5 hPa | 0 mm | - | - | - |
| 1777793531 | 15.56° C | 71% | 1014.5 hPa | 0 mm | - | - | - |
| 1777791731 | 13.89° C | 74% | 1014.4 hPa | 0 mm | - | - | - |
| 1777789931 | 13.89° C | 72% | 1014.1 hPa | 0 mm | - | - | - |
| 1777788131 | 12.22° C | 75% | 1014.1 hPa | 0 mm | - | - | - |
| 1777786331 | 10.56° C | 80% | 1014.2 hPa | 0 mm | - | - | - |
| 1777784532 | 9.44° C | 81% | 1014.4 hPa | 0 mm | - | - | - |
| 1777782731 | 7.78° C | 84% | 1014.4 hPa | 0 mm | - | - | - |
| 1777780930 | 7.78° C | 84% | 1014.3 hPa | 0 mm | - | - | - |
| 1777779131 | 7.78° C | 83% | 1014.4 hPa | 0 mm | - | - | - |
| 1777777331 | 8.33° C | 81% | 1014.5 hPa | 0 mm | - | - | - |
| 1777775531 | 8.33° C | 81% | 1014.5 hPa | 0 mm | - | - | - |
| 1777773731 | 8.89° C | 79% | 1014.9 hPa | 0 mm | - | - | - |
| 1777771931 | 8.89° C | 78% | 1014.9 hPa | 0 mm | - | - | - |
| 1777770132 | 9.44° C | 76% | 1015.1 hPa | 0 mm | - | - | - |
| 1777768329 | 9.44° C | 76% | 1015.3 hPa | 0 mm | - | - | - |
| 1777766530 | 10.56° C | 73% | 1015.5 hPa | 0 mm | - | - | - |
| 1777764730 | 11.67° C | 68% | 1015.6 hPa | 0 mm | - | - | - |
| 1777762930 | 12.22° C | 67% | 1015.7 hPa | 0 mm | - | - | - |
| 1777761131 | 11.67° C | 69% | 1015.6 hPa | 0 mm | - | - | - |
| 1777759330 | 12.22° C | 69% | 1015.7 hPa | 0 mm | - | - | - |
| 1777757530 | 12.22° C | 66% | 1015.7 hPa | 0 mm | - | - | - |
* Rain since midnight (hover to see other rain measurements)
** Current wind speed in m/s (hover to see current wind gust speed)